sensor_id;sensor_type;location;lat;lon;timestamp;pressure;altitude;pressure_sealevel;temperature;humidity
71567;BME280;59403;47.456;19.120;2023-03-18T00:00:47;100884.06;;;3.65;53.07
71567;BME280;59403;47.456;19.120;2023-03-18T00:03:16;100877.37;;;3.61;53.72
71567;BME280;59403;47.456;19.120;2023-03-18T00:05:43;100872.25;;;3.60;53.67
71567;BME280;59403;47.456;19.120;2023-03-18T00:08:10;100869.81;;;3.57;53.73
71567;BME280;59403;47.456;19.120;2023-03-18T00:10:38;100879.53;;;3.55;53.94
71567;BME280;59403;47.456;19.120;2023-03-18T00:13:05;100877.03;;;3.53;53.78
71567;BME280;59403;47.456;19.120;2023-03-18T00:15:31;100876.22;;;3.53;53.69
71567;BME280;59403;47.456;19.120;2023-03-18T00:17:59;100865.22;;;3.60;52.65
71567;BME280;59403;47.456;19.120;2023-03-18T00:20:27;100857.03;;;3.52;53.25
71567;BME280;59403;47.456;19.120;2023-03-18T00:23:04;100866.12;;;3.46;53.60
71567;BME280;59403;47.456;19.120;2023-03-18T00:25:31;100856.66;;;3.44;53.72
71567;BME280;59403;47.456;19.120;2023-03-18T00:27:58;100856.66;;;3.44;53.54
71567;BME280;59403;47.456;19.120;2023-03-18T00:30:25;100856.06;;;3.40;53.83
71567;BME280;59403;47.456;19.120;2023-03-18T00:32:52;100863.72;;;3.43;53.44
71567;BME280;59403;47.456;19.120;2023-03-18T00:35:21;100853.13;;;3.45;52.97
71567;BME280;59403;47.456;19.120;2023-03-18T00:37:50;100852.06;;;3.47;52.92
71567;BME280;59403;47.456;19.120;2023-03-18T00:40:18;100857.53;;;3.44;53.01
71567;BME280;59403;47.456;19.120;2023-03-18T00:42:52;100847.59;;;3.49;52.56
71567;BME280;59403;47.456;19.120;2023-03-18T00:45:26;100847.78;;;3.46;52.39
71567;BME280;59403;47.456;19.120;2023-03-18T00:47:54;100847.91;;;3.45;52.64
71567;BME280;59403;47.456;19.120;2023-03-18T00:50:21;100851.44;;;3.44;52.45
71567;BME280;59403;47.456;19.120;2023-03-18T00:52:49;100846.41;;;3.41;52.88
71567;BME280;59403;47.456;19.120;2023-03-18T00:55:16;100851.97;;;3.36;53.28
71567;BME280;59403;47.456;19.120;2023-03-18T00:57:44;100845.59;;;3.40;52.58
71567;BME280;59403;47.456;19.120;2023-03-18T01:00:12;100847.25;;;3.41;52.36
71567;BME280;59403;47.456;19.120;2023-03-18T01:02:41;100839.63;;;3.38;52.62
71567;BME280;59403;47.456;19.120;2023-03-18T01:05:10;100838.03;;;3.36;52.77
71567;BME280;59403;47.456;19.120;2023-03-18T01:07:38;100844.09;;;3.36;53.12
71567;BME280;59403;47.456;19.120;2023-03-18T01:10:09;100829.75;;;3.29;53.62
71567;BME280;59403;47.456;19.120;2023-03-18T01:12:37;100831.62;;;3.27;53.66
71567;BME280;59403;47.456;19.120;2023-03-18T01:15:11;100831.81;;;3.24;53.45
71567;BME280;59403;47.456;19.120;2023-03-18T01:17:38;100827.63;;;3.22;53.49
71567;BME280;59403;47.456;19.120;2023-03-18T01:20:08;100830.34;;;3.20;53.77
71567;BME280;59403;47.456;19.120;2023-03-18T01:22:36;100836.25;;;3.10;54.32
71567;BME280;59403;47.456;19.120;2023-03-18T01:25:04;100822.75;;;3.03;54.74
71567;BME280;59403;47.456;19.120;2023-03-18T01:27:34;100824.19;;;2.95;55.13
71567;BME280;59403;47.456;19.120;2023-03-18T01:30:01;100825.31;;;2.91;54.92
71567;BME280;59403;47.456;19.120;2023-03-18T01:32:29;100826.84;;;2.81;55.69
71567;BME280;59403;47.456;19.120;2023-03-18T01:34:56;100820.97;;;2.77;55.88
71567;BME280;59403;47.456;19.120;2023-03-18T01:37:24;100819.03;;;2.67;56.86
71567;BME280;59403;47.456;19.120;2023-03-18T01:39:51;100821.09;;;2.62;56.94
71567;BME280;59403;47.456;19.120;2023-03-18T01:42:18;100804.94;;;2.55;57.75
71567;BME280;59403;47.456;19.120;2023-03-18T01:44:48;100813.06;;;2.51;58.34
71567;BME280;59403;47.456;19.120;2023-03-18T01:47:15;100807.50;;;2.43;59.45
71567;BME280;59403;47.456;19.120;2023-03-18T01:49:45;100812.97;;;2.38;59.70
71567;BME280;59403;47.456;19.120;2023-03-18T01:52:16;100809.81;;;2.33;59.58
71567;BME280;59403;47.456;19.120;2023-03-18T01:54:45;100806.84;;;2.25;59.99
71567;BME280;59403;47.456;19.120;2023-03-18T01:57:14;100807.03;;;2.22;59.96
71567;BME280;59403;47.456;19.120;2023-03-18T01:59:45;100801.72;;;2.23;60.72
71567;BME280;59403;47.456;19.120;2023-03-18T02:02:16;100803.22;;;2.13;60.63
71567;BME280;59403;47.456;19.120;2023-03-18T02:04:46;100802.19;;;2.16;60.89
71567;BME280;59403;47.456;19.120;2023-03-18T02:07:16;100805.09;;;2.11;62.15
71567;BME280;59403;47.456;19.120;2023-03-18T02:09:44;100809.84;;;2.05;62.69
71567;BME280;59403;47.456;19.120;2023-03-18T02:12:12;100813.66;;;1.99;63.03
71567;BME280;59403;47.456;19.120;2023-03-18T02:14:40;100801.81;;;1.94;63.82
71567;BME280;59403;47.456;19.120;2023-03-18T02:17:10;100807.31;;;1.89;63.93
71567;BME280;59403;47.456;19.120;2023-03-18T02:19:51;100796.28;;;1.84;63.92
71567;BME280;59403;47.456;19.120;2023-03-18T02:22:27;100795.47;;;1.84;63.75
71567;BME280;59403;47.456;19.120;2023-03-18T02:25:03;100792.00;;;1.83;64.71
71567;BME280;59403;47.456;19.120;2023-03-18T02:27:36;100797.44;;;1.80;65.56
71567;BME280;59403;47.456;19.120;2023-03-18T02:30:09;100788.19;;;1.75;65.65
71567;BME280;59403;47.456;19.120;2023-03-18T02:32:39;100788.53;;;1.69;66.44
71567;BME280;59403;47.456;19.120;2023-03-18T02:35:10;100798.25;;;1.67;66.52
71567;BME280;59403;47.456;19.120;2023-03-18T02:37:37;100799.16;;;1.66;66.72
71567;BME280;59403;47.456;19.120;2023-03-18T02:40:12;100807.38;;;1.60;66.77
71567;BME280;59403;47.456;19.120;2023-03-18T02:42:42;100798.03;;;1.56;67.48
71567;BME280;59403;47.456;19.120;2023-03-18T02:45:12;100800.19;;;1.49;69.07
71567;BME280;59403;47.456;19.120;2023-03-18T02:47:43;100800.09;;;1.51;68.15
71567;BME280;59403;47.456;19.120;2023-03-18T02:50:13;100806.50;;;1.45;67.59
71567;BME280;59403;47.456;19.120;2023-03-18T02:52:40;100798.84;;;1.42;68.70
71567;BME280;59403;47.456;19.120;2023-03-18T02:55:08;100799.00;;;1.39;69.22
71567;BME280;59403;47.456;19.120;2023-03-18T02:57:35;100808.34;;;1.43;68.36
71567;BME280;59403;47.456;19.120;2023-03-18T03:00:04;100800.03;;;1.37;68.79
71567;BME280;59403;47.456;19.120;2023-03-18T03:02:31;100808.97;;;1.33;69.19
71567;BME280;59403;47.456;19.120;2023-03-18T03:04:57;100804.88;;;1.29;69.67
71567;BME280;59403;47.456;19.120;2023-03-18T03:07:25;100805.22;;;1.23;69.69
71567;BME280;59403;47.456;19.120;2023-03-18T03:09:53;100804.47;;;1.21;70.88
71567;BME280;59403;47.456;19.120;2023-03-18T03:12:20;100807.16;;;1.19;70.15
71567;BME280;59403;47.456;19.120;2023-03-18T03:14:47;100812.38;;;1.19;69.82
71567;BME280;59403;47.456;19.120;2023-03-18T03:17:15;100810.19;;;1.11;70.22
71567;BME280;59403;47.456;19.120;2023-03-18T03:19:42;100812.22;;;1.06;70.03
71567;BME280;59403;47.456;19.120;2023-03-18T03:22:10;100801.97;;;1.03;70.59
71567;BME280;59403;47.456;19.120;2023-03-18T03:24:37;100811.16;;;0.95;71.28
71567;BME280;59403;47.456;19.120;2023-03-18T03:27:04;100810.72;;;0.87;71.48
71567;BME280;59403;47.456;19.120;2023-03-18T03:29:32;100810.72;;;0.87;71.53
71567;BME280;59403;47.456;19.120;2023-03-18T03:31:58;100813.19;;;0.90;71.79
71567;BME280;59403;47.456;19.120;2023-03-18T03:34:27;100811.19;;;0.79;71.60
71567;BME280;59403;47.456;19.120;2023-03-18T03:36:54;100821.81;;;0.90;70.79
71567;BME280;59403;47.456;19.120;2023-03-18T03:39:21;100821.25;;;0.85;70.84
71567;BME280;59403;47.456;19.120;2023-03-18T03:41:48;100812.00;;;0.95;69.37
71567;BME280;59403;47.456;19.120;2023-03-18T03:44:16;100823.25;;;0.96;68.94
71567;BME280;59403;47.456;19.120;2023-03-18T03:46:43;100825.78;;;0.97;69.06
71567;BME280;59403;47.456;19.120;2023-03-18T03:49:10;100825.28;;;0.91;69.70
71567;BME280;59403;47.456;19.120;2023-03-18T03:51:39;100829.59;;;0.92;69.47
71567;BME280;59403;47.456;19.120;2023-03-18T03:54:06;100828.75;;;0.91;69.12
71567;BME280;59403;47.456;19.120;2023-03-18T03:56:32;100823.13;;;0.83;70.44
71567;BME280;59403;47.456;19.120;2023-03-18T03:58:59;100824.69;;;0.86;69.65
71567;BME280;59403;47.456;19.120;2023-03-18T04:01:26;100830.69;;;0.88;69.74
71567;BME280;59403;47.456;19.120;2023-03-18T04:03:53;100834.13;;;0.88;70.39
71567;BME280;59403;47.456;19.120;2023-03-18T04:06:21;100828.25;;;0.85;70.41
71567;BME280;59403;47.456;19.120;2023-03-18T04:08:49;100829.25;;;0.82;70.09
71567;BME280;59403;47.456;19.120;2023-03-18T04:11:16;100833.53;;;0.83;69.95
71567;BME280;59403;47.456;19.120;2023-03-18T04:13:44;100829.25;;;0.82;70.19
71567;BME280;59403;47.456;19.120;2023-03-18T04:16:11;100827.41;;;0.84;69.73
71567;BME280;59403;47.456;19.120;2023-03-18T04:18:38;100835.31;;;0.83;69.71
71567;BME280;59403;47.456;19.120;2023-03-18T04:21:05;100832.53;;;0.86;69.47
71567;BME280;59403;47.456;19.120;2023-03-18T04:23:33;100834.94;;;0.89;68.91
71567;BME280;59403;47.456;19.120;2023-03-18T04:26:01;100840.84;;;0.92;69.04
71567;BME280;59403;47.456;19.120;2023-03-18T04:28:29;100834.63;;;0.95;68.92
71567;BME280;59403;47.456;19.120;2023-03-18T04:30:57;100835.53;;;0.94;68.77
71567;BME280;59403;47.456;19.120;2023-03-18T04:33:24;100842.53;;;0.93;68.66
71567;BME280;59403;47.456;19.120;2023-03-18T04:35:52;100845.16;;;0.93;68.27
71567;BME280;59403;47.456;19.120;2023-03-18T04:38:19;100845.16;;;0.93;68.77
71567;BME280;59403;47.456;19.120;2023-03-18T04:40:46;100844.09;;;0.96;68.40
71567;BME280;59403;47.456;19.120;2023-03-18T04:43:15;100844.28;;;0.93;69.12
71567;BME280;59403;47.456;19.120;2023-03-18T04:45:42;100847.56;;;0.96;68.33
71567;BME280;59403;47.456;19.120;2023-03-18T04:48:09;100841.94;;;0.88;68.53
71567;BME280;59403;47.456;19.120;2023-03-18T04:50:36;100848.44;;;0.81;68.97
71567;BME280;59403;47.456;19.120;2023-03-18T04:53:03;100853.06;;;0.76;69.44
71567;BME280;59403;47.456;19.120;2023-03-18T04:55:30;100858.94;;;0.80;69.26
71567;BME280;59403;47.456;19.120;2023-03-18T04:57:58;100854.41;;;0.83;69.12
71567;BME280;59403;47.456;19.120;2023-03-18T05:00:26;100858.00;;;0.81;69.70
71567;BME280;59403;47.456;19.120;2023-03-18T05:02:53;100858.84;;;0.81;69.29
71567;BME280;59403;47.456;19.120;2023-03-18T05:05:21;100857.81;;;0.84;69.78
71567;BME280;59403;47.456;19.120;2023-03-18T05:07:48;100862.22;;;0.83;69.66
71567;BME280;59403;47.456;19.120;2023-03-18T05:10:15;100865.41;;;0.88;70.08
71567;BME280;59403;47.456;19.120;2023-03-18T05:12:43;100866.75;;;0.95;69.78
71567;BME280;59403;47.456;19.120;2023-03-18T05:15:10;100863.63;;;1.04;69.25
71567;BME280;59403;47.456;19.120;2023-03-18T05:17:38;100865.97;;;1.09;69.44
71567;BME280;59403;47.456;19.120;2023-03-18T05:20:07;100872.44;;;1.17;69.18
71567;BME280;59403;47.456;19.120;2023-03-18T05:22:34;100869.25;;;1.28;68.39
71567;BME280;59403;47.456;19.120;2023-03-18T05:25:01;100871.66;;;1.31;68.19
71567;BME280;59403;47.456;19.120;2023-03-18T05:27:28;100871.72;;;1.45;67.72
71567;BME280;59403;47.456;19.120;2023-03-18T05:29:55;100870.72;;;1.48;67.42
71567;BME280;59403;47.456;19.120;2023-03-18T05:32:22;100875.56;;;1.54;67.19
71567;BME280;59403;47.456;19.120;2023-03-18T05:34:51;100875.22;;;1.60;66.91
71567;BME280;59403;47.456;19.120;2023-03-18T05:37:18;100881.50;;;1.71;66.57
71567;BME280;59403;47.456;19.120;2023-03-18T05:39:45;100882.06;;;1.76;66.25
71567;BME280;59403;47.456;19.120;2023-03-18T05:42:12;100878.63;;;1.76;66.36
71567;BME280;59403;47.456;19.120;2023-03-18T05:44:39;100878.47;;;1.79;66.47
71567;BME280;59403;47.456;19.120;2023-03-18T05:47:07;100884.53;;;1.93;65.95
71567;BME280;59403;47.456;19.120;2023-03-18T05:49:34;100888.41;;;2.44;64.19
71567;BME280;59403;47.456;19.120;2023-03-18T05:52:03;100887.75;;;2.69;63.39
71567;BME280;59403;47.456;19.120;2023-03-18T05:54:30;100886.22;;;2.79;62.91
71567;BME280;59403;47.456;19.120;2023-03-18T05:56:57;100888.84;;;2.79;62.66
71567;BME280;59403;47.456;19.120;2023-03-18T05:59:24;100883.63;;;2.51;63.42
71567;BME280;59403;47.456;19.120;2023-03-18T06:01:52;100892.03;;;2.42;64.09
71567;BME280;59403;47.456;19.120;2023-03-18T06:04:19;100894.47;;;2.45;63.86
71567;BME280;59403;47.456;19.120;2023-03-18T06:06:46;100892.53;;;2.48;64.15
71567;BME280;59403;47.456;19.120;2023-03-18T06:09:15;100893.44;;;2.47;64.11
71567;BME280;59403;47.456;19.120;2023-03-18T06:11:42;100899.31;;;2.51;64.34
71567;BME280;59403;47.456;19.120;2023-03-18T06:14:10;100895.50;;;2.56;63.67
71567;BME280;59403;47.456;19.120;2023-03-18T06:16:37;100901.19;;;2.63;63.62
71567;BME280;59403;47.456;19.120;2023-03-18T06:19:04;100898.41;;;2.66;63.42
71567;BME280;59403;47.456;19.120;2023-03-18T06:21:32;100900.91;;;2.67;63.69
71567;BME280;59403;47.456;19.120;2023-03-18T06:23:59;100900.72;;;2.70;63.56
71567;BME280;59403;47.456;19.120;2023-03-18T06:26:28;100902.97;;;2.76;63.25
71567;BME280;59403;47.456;19.120;2023-03-18T06:28:55;100901.34;;;2.88;63.20
71567;BME280;59403;47.456;19.120;2023-03-18T06:31:23;100896.88;;;2.90;63.15
71567;BME280;59403;47.456;19.120;2023-03-18T06:33:50;100902.75;;;2.93;62.83
71567;BME280;59403;47.456;19.120;2023-03-18T06:36:17;100902.44;;;2.98;62.57
71567;BME280;59403;47.456;19.120;2023-03-18T06:38:45;100901.44;;;3.00;62.45
71567;BME280;59403;47.456;19.120;2023-03-18T06:41:12;100910.00;;;3.02;62.36
71567;BME280;59403;47.456;19.120;2023-03-18T06:43:42;100909.38;;;2.99;62.48
71567;BME280;59403;47.456;19.120;2023-03-18T06:46:09;100924.78;;;3.03;62.66
71567;BME280;59403;47.456;19.120;2023-03-18T06:48:36;100917.69;;;3.05;62.44
71567;BME280;59403;47.456;19.120;2023-03-18T06:51:05;100919.25;;;3.08;62.41
71567;BME280;59403;47.456;19.120;2023-03-18T06:53:32;100923.25;;;3.13;62.09
71567;BME280;59403;47.456;19.120;2023-03-18T06:56:01;100918.66;;;3.17;62.15
71567;BME280;59403;47.456;19.120;2023-03-18T06:58:28;100919.97;;;3.24;61.61
71567;BME280;59403;47.456;19.120;2023-03-18T07:00:56;100928.44;;;3.27;61.71
71567;BME280;59403;47.456;19.120;2023-03-18T07:03:23;100928.06;;;3.33;62.06
71567;BME280;59403;47.456;19.120;2023-03-18T07:05:50;100927.19;;;3.47;61.58
71567;BME280;59403;47.456;19.120;2023-03-18T07:08:17;100927.63;;;3.54;61.50
71567;BME280;59403;47.456;19.120;2023-03-18T07:10:44;100930.88;;;3.57;61.34
71567;BME280;59403;47.456;19.120;2023-03-18T07:13:11;100926.38;;;3.59;61.34
71567;BME280;59403;47.456;19.120;2023-03-18T07:15:40;100935.03;;;4.25;59.00
71567;BME280;59403;47.456;19.120;2023-03-18T07:18:08;100924.09;;;4.19;59.13
71567;BME280;59403;47.456;19.120;2023-03-18T07:20:36;100936.34;;;4.31;59.10
71567;BME280;59403;47.456;19.120;2023-03-18T07:23:03;100927.34;;;4.47;57.69
71567;BME280;59403;47.456;19.120;2023-03-18T07:25:30;100927.78;;;4.54;58.11
71567;BME280;59403;47.456;19.120;2023-03-18T07:27:57;100926.06;;;4.78;58.04
71567;BME280;59403;47.456;19.120;2023-03-18T07:30:26;100931.28;;;5.03;56.72
71567;BME280;59403;47.456;19.120;2023-03-18T07:32:53;100930.75;;;5.11;56.57
71567;BME280;59403;47.456;19.120;2023-03-18T07:35:22;100926.56;;;5.32;55.17
71567;BME280;59403;47.456;19.120;2023-03-18T07:37:49;100932.41;;;5.35;56.05
71567;BME280;59403;47.456;19.120;2023-03-18T07:40:16;100938.59;;;5.47;54.98
71567;BME280;59403;47.456;19.120;2023-03-18T07:42:43;100936.59;;;5.50;55.08
71567;BME280;59403;47.456;19.120;2023-03-18T07:45:10;100943.00;;;5.70;53.65
71567;BME280;59403;47.456;19.120;2023-03-18T07:47:37;100952.22;;;5.75;53.89
71567;BME280;59403;47.456;19.120;2023-03-18T07:50:05;100934.84;;;5.86;53.55
71567;BME280;59403;47.456;19.120;2023-03-18T07:52:33;100943.50;;;5.99;53.33
71567;BME280;59403;47.456;19.120;2023-03-18T07:55:00;100941.00;;;5.97;53.16
71567;BME280;59403;47.456;19.120;2023-03-18T07:57:27;100946.69;;;5.91;54.13
71567;BME280;59403;47.456;19.120;2023-03-18T07:59:54;100948.09;;;6.08;54.03
71567;BME280;59403;47.456;19.120;2023-03-18T08:02:21;100953.09;;;6.11;53.73
71567;BME280;59403;47.456;19.120;2023-03-18T08:04:49;100954.94;;;6.21;52.87
71567;BME280;59403;47.456;19.120;2023-03-18T08:07:17;100949.72;;;6.32;52.94
71567;BME280;59403;47.456;19.120;2023-03-18T08:09:46;100943.62;;;6.54;52.86
71567;BME280;59403;47.456;19.120;2023-03-18T08:12:15;100945.09;;;6.58;52.57
71567;BME280;59403;47.456;19.120;2023-03-18T08:14:42;100950.47;;;6.67;51.93
71567;BME280;59403;47.456;19.120;2023-03-18T08:17:09;100951.19;;;7.03;50.57
71567;BME280;59403;47.456;19.120;2023-03-18T08:19:37;100958.38;;;7.01;49.91
71567;BME280;59403;47.456;19.120;2023-03-18T08:22:04;100944.84;;;7.05;51.33
71567;BME280;59403;47.456;19.120;2023-03-18T08:24:30;100950.72;;;7.09;50.80
71567;BME280;59403;47.456;19.120;2023-03-18T08:26:59;100942.56;;;7.23;51.18
71567;BME280;59403;47.456;19.120;2023-03-18T08:29:26;100946.97;;;7.22;50.64
71567;BME280;59403;47.456;19.120;2023-03-18T08:31:53;100939.28;;;7.30;50.96
71567;BME280;59403;47.456;19.120;2023-03-18T08:34:20;100944.75;;;7.60;50.47
71567;BME280;59403;47.456;19.120;2023-03-18T08:36:48;100944.59;;;7.73;49.75
71567;BME280;59403;47.456;19.120;2023-03-18T08:39:15;100940.09;;;7.84;49.46
71567;BME280;59403;47.456;19.120;2023-03-18T08:41:42;100934.44;;;7.89;49.77
71567;BME280;59403;47.456;19.120;2023-03-18T08:44:11;100936.13;;;8.11;48.28
71567;BME280;59403;47.456;19.120;2023-03-18T08:46:38;100936.91;;;8.22;48.32
71567;BME280;59403;47.456;19.120;2023-03-18T08:49:05;100931.53;;;8.24;47.75
71567;BME280;59403;47.456;19.120;2023-03-18T08:51:32;100928.50;;;8.49;46.68
71567;BME280;59403;47.456;19.120;2023-03-18T08:53:59;100927.41;;;8.51;47.06
71567;BME280;59403;47.456;19.120;2023-03-18T08:56:26;100927.25;;;8.83;46.41
71567;BME280;59403;47.456;19.120;2023-03-18T08:58:53;100923.56;;;8.95;46.39
71567;BME280;59403;47.456;19.120;2023-03-18T09:01:22;100925.53;;;9.02;46.38
71567;BME280;59403;47.456;19.120;2023-03-18T09:03:49;100929.22;;;9.21;45.80
71567;BME280;59403;47.456;19.120;2023-03-18T09:06:16;100928.53;;;9.28;45.52
71567;BME280;59403;47.456;19.120;2023-03-18T09:08:43;100926.56;;;9.21;44.55
71567;BME280;59403;47.456;19.120;2023-03-18T09:11:10;100925.63;;;9.31;44.81
71567;BME280;59403;47.456;19.120;2023-03-18T09:13:38;100921.91;;;9.53;45.37
71567;BME280;59403;47.456;19.120;2023-03-18T09:16:06;100919.00;;;9.65;45.42
71567;BME280;59403;47.456;19.120;2023-03-18T09:18:34;100923.59;;;9.73;44.88
71567;BME280;59403;47.456;19.120;2023-03-18T09:21:02;100916.34;;;9.75;44.42
71567;BME280;59403;47.456;19.120;2023-03-18T09:23:29;100911.06;;;9.84;45.14
71567;BME280;59403;47.456;19.120;2023-03-18T09:25:57;100914.69;;;10.12;44.10
71567;BME280;59403;47.456;19.120;2023-03-18T09:28:24;100907.56;;;10.03;43.96
71567;BME280;59403;47.456;19.120;2023-03-18T09:30:51;100905.06;;;10.20;44.31
71567;BME280;59403;47.456;19.120;2023-03-18T09:33:19;100907.59;;;10.12;43.38
71567;BME280;59403;47.456;19.120;2023-03-18T09:35:48;100906.28;;;10.36;43.04
71567;BME280;59403;47.456;19.120;2023-03-18T09:38:16;100922.06;;;10.27;43.84
71567;BME280;59403;47.456;19.120;2023-03-18T09:40:51;100902.84;;;10.16;43.62
71567;BME280;59403;47.456;19.120;2023-03-18T09:43:41;100899.72;;;10.49;43.34
71567;BME280;59403;47.456;19.120;2023-03-18T09:46:17;100897.87;;;10.59;43.13
71567;BME280;59403;47.456;19.120;2023-03-18T09:49:07;100898.66;;;10.69;43.35
71567;BME280;59403;47.456;19.120;2023-03-18T09:51:47;100895.22;;;10.59;42.88
71567;BME280;59403;47.456;19.120;2023-03-18T09:54:21;100900.69;;;10.85;43.53
71567;BME280;59403;47.456;19.120;2023-03-18T09:56:52;100892.16;;;10.91;42.51
71567;BME280;59403;47.456;19.120;2023-03-18T09:59:23;100897.84;;;10.96;42.70
71567;BME280;59403;47.456;19.120;2023-03-18T10:01:52;100886.31;;;10.87;42.65
71567;BME280;59403;47.456;19.120;2023-03-18T10:04:22;100890.50;;;11.17;42.89
71567;BME280;59403;47.456;19.120;2023-03-18T10:06:56;100884.00;;;11.02;41.42
71567;BME280;59403;47.456;19.120;2023-03-18T10:09:28;100878.19;;;11.16;41.88
71567;BME280;59403;47.456;19.120;2023-03-18T10:12:00;100877.25;;;11.34;42.34
71567;BME280;59403;47.456;19.120;2023-03-18T10:14:40;100879.44;;;11.39;42.18
71567;BME280;59403;47.456;19.120;2023-03-18T10:17:15;100881.37;;;11.47;41.69
71567;BME280;59403;47.456;19.120;2023-03-18T10:19:46;100866.19;;;11.39;41.14
71567;BME280;59403;47.456;19.120;2023-03-18T10:22:44;100875.38;;;11.44;41.15
71567;BME280;59403;47.456;19.120;2023-03-18T10:25:21;100872.84;;;11.61;40.75
71567;BME280;59403;47.456;19.120;2023-03-18T10:27:59;100862.69;;;11.56;41.85
71567;BME280;59403;47.456;19.120;2023-03-18T10:30:49;100874.16;;;11.57;40.95
71567;BME280;59403;47.456;19.120;2023-03-18T10:33:25;100869.75;;;11.48;40.50
71567;BME280;59403;47.456;19.120;2023-03-18T10:36:02;100868.34;;;11.88;41.52
71567;BME280;59403;47.456;19.120;2023-03-18T10:38:34;100866.66;;;11.87;41.40
71567;BME280;59403;47.456;19.120;2023-03-18T10:41:12;100867.34;;;11.89;43.06
71567;BME280;59403;47.456;19.120;2023-03-18T10:43:40;100868.16;;;12.33;39.96
71567;BME280;59403;47.456;19.120;2023-03-18T10:46:10;100861.41;;;12.38;39.71
71567;BME280;59403;47.456;19.120;2023-03-18T10:48:42;100865.81;;;12.30;39.60
71567;BME280;59403;47.456;19.120;2023-03-18T10:51:15;100861.69;;;12.35;39.68
71567;BME280;59403;47.456;19.120;2023-03-18T10:53:50;100860.41;;;12.47;39.38
71567;BME280;59403;47.456;19.120;2023-03-18T10:56:19;100857.03;;;12.63;39.47
71567;BME280;59403;47.456;19.120;2023-03-18T10:58:47;100847.47;;;12.78;39.75
71567;BME280;59403;47.456;19.120;2023-03-18T11:01:18;100847.50;;;12.86;38.95
71567;BME280;59403;47.456;19.120;2023-03-18T11:03:49;100846.25;;;12.65;39.47
71567;BME280;59403;47.456;19.120;2023-03-18T11:06:21;100842.06;;;12.54;39.64
71567;BME280;59403;47.456;19.120;2023-03-18T11:09:00;100834.97;;;12.71;40.03
71567;BME280;59403;47.456;19.120;2023-03-18T11:11:29;100829.44;;;12.98;39.48
71567;BME280;59403;47.456;19.120;2023-03-18T11:13:59;100835.66;;;13.06;40.39
71567;BME280;59403;47.456;19.120;2023-03-18T11:16:29;100827.22;;;12.85;40.06
71567;BME280;59403;47.456;19.120;2023-03-18T11:19:05;100816.19;;;13.06;39.15
71567;BME280;59403;47.456;19.120;2023-03-18T11:21:34;100814.91;;;13.34;39.88
71567;BME280;59403;47.456;19.120;2023-03-18T11:24:03;100811.59;;;13.40;39.05
71567;BME280;59403;47.456;19.120;2023-03-18T11:26:52;100806.44;;;13.30;39.35
71567;BME280;59403;47.456;19.120;2023-03-18T11:29:22;100806.97;;;13.50;39.70
71567;BME280;59403;47.456;19.120;2023-03-18T11:31:53;100808.62;;;13.43;39.42
71567;BME280;59403;47.456;19.120;2023-03-18T11:34:23;100798.47;;;13.30;39.13
71567;BME280;59403;47.456;19.120;2023-03-18T11:36:55;100796.66;;;13.55;38.39
71567;BME280;59403;47.456;19.120;2023-03-18T11:39:27;100799.78;;;13.42;38.47
71567;BME280;59403;47.456;19.120;2023-03-18T11:41:56;100795.12;;;13.36;38.05
71567;BME280;59403;47.456;19.120;2023-03-18T11:44:28;100791.31;;;13.47;38.40
71567;BME280;59403;47.456;19.120;2023-03-18T11:47:00;100786.47;;;13.50;37.67
71567;BME280;59403;47.456;19.120;2023-03-18T11:49:28;100788.66;;;13.39;39.17
71567;BME280;59403;47.456;19.120;2023-03-18T11:52:21;100786.97;;;13.54;38.91
71567;BME280;59403;47.456;19.120;2023-03-18T11:55:14;100777.19;;;13.46;39.56
71567;BME280;59403;47.456;19.120;2023-03-18T11:58:13;100779.34;;;13.51;39.67
71567;BME280;59403;47.456;19.120;2023-03-18T12:00:53;100783.81;;;13.34;39.75
71567;BME280;59403;47.456;19.120;2023-03-18T12:03:38;100778.66;;;13.17;39.44
71567;BME280;59403;47.456;19.120;2023-03-18T12:06:17;100779.31;;;13.35;40.78
71567;BME280;59403;47.456;19.120;2023-03-18T12:08:59;100773.03;;;13.60;39.64
71567;BME280;59403;47.456;19.120;2023-03-18T12:12:00;100775.00;;;13.74;39.50
71567;BME280;59403;47.456;19.120;2023-03-18T12:14:37;100768.03;;;13.65;38.92
71567;BME280;59403;47.456;19.120;2023-03-18T12:17:20;100765.84;;;13.77;38.89
71567;BME280;59403;47.456;19.120;2023-03-18T12:22:51;100740.09;;;13.69;39.84
71567;BME280;59403;47.456;19.120;2023-03-18T12:25:45;100766.72;;;13.69;40.04
71567;BME280;59403;47.456;19.120;2023-03-18T12:28:28;100754.91;;;13.63;40.29
71567;BME280;59403;47.456;19.120;2023-03-18T12:31:05;100754.03;;;13.31;41.51
71567;BME280;59403;47.456;19.120;2023-03-18T12:33:49;100749.25;;;13.42;41.18
71567;BME280;59403;47.456;19.120;2023-03-18T12:36:27;100755.87;;;13.79;39.39
71567;BME280;59403;47.456;19.120;2023-03-18T12:39:07;100748.22;;;13.92;39.14
71567;BME280;59403;47.456;19.120;2023-03-18T12:41:47;100744.88;;;13.82;39.13
71567;BME280;59403;47.456;19.120;2023-03-18T12:44:36;100742.37;;;13.80;39.20
71567;BME280;59403;47.456;19.120;2023-03-18T12:47:14;100751.56;;;13.45;39.29
71567;BME280;59403;47.456;19.120;2023-03-18T12:49:47;100751.91;;;13.58;40.90
71567;BME280;59403;47.456;19.120;2023-03-18T12:52:26;100745.41;;;13.61;39.83
71567;BME280;59403;47.456;19.120;2023-03-18T12:55:00;100746.91;;;13.63;39.50
71567;BME280;59403;47.456;19.120;2023-03-18T12:57:35;100750.22;;;13.41;40.56
71567;BME280;59403;47.456;19.120;2023-03-18T13:00:15;100745.09;;;13.48;41.90
71567;BME280;59403;47.456;19.120;2023-03-18T13:02:48;100749.56;;;13.63;40.67
71567;BME280;59403;47.456;19.120;2023-03-18T13:05:23;100745.41;;;13.61;41.21